sensor_id;sensor_type;location;lat;lon;timestamp;pressure;altitude;pressure_sealevel;temperature;humidity
61035;BME280;46916;40.564;-7.958;2023-09-30T00:01:42;97918.72;;;22.85;59.87
61035;BME280;46916;40.564;-7.958;2023-09-30T00:03:45;97919.53;;;22.86;59.82
61035;BME280;46916;40.564;-7.958;2023-09-30T00:05:45;97917.09;;;22.84;59.51
61035;BME280;46916;40.564;-7.958;2023-09-30T00:07:46;97913.81;;;22.82;59.44
61035;BME280;46916;40.564;-7.958;2023-09-30T00:09:47;97910.94;;;22.84;59.44
61035;BME280;46916;40.564;-7.958;2023-09-30T00:11:47;97906.78;;;22.81;59.59
61035;BME280;46916;40.564;-7.958;2023-09-30T00:13:48;97905.53;;;22.77;59.88
61035;BME280;46916;40.564;-7.958;2023-09-30T00:15:49;97904.28;;;22.73;59.93
61035;BME280;46916;40.564;-7.958;2023-09-30T00:17:50;97903.22;;;22.67;60.37
61035;BME280;46916;40.564;-7.958;2023-09-30T00:19:51;97905.88;;;22.67;60.50
61035;BME280;46916;40.564;-7.958;2023-09-30T00:21:51;97904.25;;;22.66;60.27
61035;BME280;46916;40.564;-7.958;2023-09-30T00:23:52;97905.66;;;22.62;60.30
61035;BME280;46916;40.564;-7.958;2023-09-30T00:25:52;97906.25;;;22.58;60.35
61035;BME280;46916;40.564;-7.958;2023-09-30T00:27:53;97907.44;;;22.55;60.41
61035;BME280;46916;40.564;-7.958;2023-09-30T00:29:55;97905.38;;;22.50;60.49
61035;BME280;46916;40.564;-7.958;2023-09-30T00:31:56;97898.38;;;22.49;60.25
61035;BME280;46916;40.564;-7.958;2023-09-30T00:33:57;97903.28;;;22.46;60.25
61035;BME280;46916;40.564;-7.958;2023-09-30T00:35:58;97895.66;;;22.43;59.93
61035;BME280;46916;40.564;-7.958;2023-09-30T00:37:58;97895.44;;;22.44;59.75
61035;BME280;46916;40.564;-7.958;2023-09-30T00:39:59;97897.75;;;22.47;59.32
61035;BME280;46916;40.564;-7.958;2023-09-30T00:42:00;97896.53;;;22.50;59.26
61035;BME280;46916;40.564;-7.958;2023-09-30T00:44:00;97904.97;;;22.54;58.96
61035;BME280;46916;40.564;-7.958;2023-09-30T00:46:04;97896.56;;;22.57;58.52
61035;BME280;46916;40.564;-7.958;2023-09-30T00:48:07;97898.41;;;22.56;58.15
61035;BME280;46916;40.564;-7.958;2023-09-30T00:50:09;97908.06;;;22.57;58.35
61035;BME280;46916;40.564;-7.958;2023-09-30T00:52:13;97895.72;;;22.49;58.51
61035;BME280;46916;40.564;-7.958;2023-09-30T00:54:13;97894.03;;;22.48;58.74
61035;BME280;46916;40.564;-7.958;2023-09-30T00:56:14;97898.94;;;22.45;58.77
61035;BME280;46916;40.564;-7.958;2023-09-30T00:58:17;97901.38;;;22.40;58.77
61035;BME280;46916;40.564;-7.958;2023-09-30T01:00:19;97890.66;;;22.33;59.20
61035;BME280;46916;40.564;-7.958;2023-09-30T01:02:20;97888.75;;;22.27;59.35
61035;BME280;46916;40.564;-7.958;2023-09-30T01:04:23;97887.88;;;22.20;59.97
61035;BME280;46916;40.564;-7.958;2023-09-30T01:06:24;97883.66;;;22.11;60.16
61035;BME280;46916;40.564;-7.958;2023-09-30T01:08:24;97886.69;;;22.08;60.61
61035;BME280;46916;40.564;-7.958;2023-09-30T01:10:26;97887.28;;;22.03;60.52
61035;BME280;46916;40.564;-7.958;2023-09-30T01:12:28;97885.19;;;21.98;60.36
61035;BME280;46916;40.564;-7.958;2023-09-30T01:14:30;97878.22;;;21.97;60.71
61035;BME280;46916;40.564;-7.958;2023-09-30T01:16:31;97878.13;;;21.91;60.86
61035;BME280;46916;40.564;-7.958;2023-09-30T01:18:32;97874.28;;;21.93;60.69
61035;BME280;46916;40.564;-7.958;2023-09-30T01:20:33;97881.25;;;21.94;60.39
61035;BME280;46916;40.564;-7.958;2023-09-30T01:22:33;97881.91;;;21.96;60.48
61035;BME280;46916;40.564;-7.958;2023-09-30T01:24:41;97872.50;;;22.00;60.10
61035;BME280;46916;40.564;-7.958;2023-09-30T01:26:42;97883.59;;;22.04;59.57
61035;BME280;46916;40.564;-7.958;2023-09-30T01:28:43;97877.25;;;22.05;59.49
61035;BME280;46916;40.564;-7.958;2023-09-30T01:30:44;97879.72;;;22.07;59.62
61035;BME280;46916;40.564;-7.958;2023-09-30T01:32:45;97875.22;;;22.07;59.62
61035;BME280;46916;40.564;-7.958;2023-09-30T01:34:46;97881.19;;;22.09;59.55
61035;BME280;46916;40.564;-7.958;2023-09-30T01:36:46;97871.50;;;22.08;59.27
61035;BME280;46916;40.564;-7.958;2023-09-30T01:38:47;97870.06;;;22.06;59.70
61035;BME280;46916;40.564;-7.958;2023-09-30T01:40:48;97872.91;;;22.04;59.45
61035;BME280;46916;40.564;-7.958;2023-09-30T01:42:48;97869.25;;;22.05;59.33
61035;BME280;46916;40.564;-7.958;2023-09-30T01:44:49;97875.41;;;22.06;59.36
61035;BME280;46916;40.564;-7.958;2023-09-30T01:46:50;97875.41;;;22.06;59.67
61035;BME280;46916;40.564;-7.958;2023-09-30T01:48:50;97871.72;;;22.07;59.71
61035;BME280;46916;40.564;-7.958;2023-09-30T01:50:51;97869.69;;;22.09;59.60
61035;BME280;46916;40.564;-7.958;2023-09-30T01:52:52;97867.44;;;22.12;59.24
61035;BME280;46916;40.564;-7.958;2023-09-30T01:54:53;97869.16;;;22.13;59.04
61035;BME280;46916;40.564;-7.958;2023-09-30T01:56:55;97860.84;;;22.08;58.99
61035;BME280;46916;40.564;-7.958;2023-09-30T01:58:55;97866.00;;;22.10;59.40
61035;BME280;46916;40.564;-7.958;2023-09-30T02:01:02;97863.50;;;22.08;59.29
61035;BME280;46916;40.564;-7.958;2023-09-30T02:03:03;97857.34;;;22.08;59.24
61035;BME280;46916;40.564;-7.958;2023-09-30T02:05:04;97857.75;;;22.05;59.41
61035;BME280;46916;40.564;-7.958;2023-09-30T02:07:05;97858.97;;;22.02;59.19
61035;BME280;46916;40.564;-7.958;2023-09-30T02:09:05;97858.72;;;21.97;59.17
61035;BME280;46916;40.564;-7.958;2023-09-30T02:11:08;97857.25;;;21.94;59.34
61035;BME280;46916;40.564;-7.958;2023-09-30T02:13:09;97857.25;;;21.94;59.00
61035;BME280;46916;40.564;-7.958;2023-09-30T02:15:10;97855.59;;;21.93;59.02
61035;BME280;46916;40.564;-7.958;2023-09-30T02:17:12;97853.31;;;21.90;59.50
61035;BME280;46916;40.564;-7.958;2023-09-30T02:19:13;97848.56;;;21.86;59.43
61035;BME280;46916;40.564;-7.958;2023-09-30T02:21:14;97855.09;;;21.83;59.41
61035;BME280;46916;40.564;-7.958;2023-09-30T02:23:15;97850.78;;;21.82;59.85
61035;BME280;46916;40.564;-7.958;2023-09-30T02:25:19;97854.28;;;21.83;59.79
61035;BME280;46916;40.564;-7.958;2023-09-30T02:27:20;97850.41;;;21.85;59.36
61035;BME280;46916;40.564;-7.958;2023-09-30T02:29:21;97851.22;;;21.86;59.46
61035;BME280;46916;40.564;-7.958;2023-09-30T02:31:23;97851.03;;;21.87;59.61
61035;BME280;46916;40.564;-7.958;2023-09-30T02:33:24;97847.38;;;21.88;59.34
61035;BME280;46916;40.564;-7.958;2023-09-30T02:35:26;97849.19;;;21.88;59.21
61035;BME280;46916;40.564;-7.958;2023-09-30T02:37:27;97850.06;;;21.95;59.22
61035;BME280;46916;40.564;-7.958;2023-09-30T02:39:27;97849.91;;;21.96;59.09
61035;BME280;46916;40.564;-7.958;2023-09-30T02:41:28;97845.19;;;21.98;59.02
61035;BME280;46916;40.564;-7.958;2023-09-30T02:43:29;97849.25;;;21.94;59.18
61035;BME280;46916;40.564;-7.958;2023-09-30T02:45:30;97846.38;;;21.96;59.26
61035;BME280;46916;40.564;-7.958;2023-09-30T02:47:32;97844.50;;;21.90;59.17
61035;BME280;46916;40.564;-7.958;2023-09-30T02:49:33;97846.97;;;21.91;59.38
61035;BME280;46916;40.564;-7.958;2023-09-30T02:51:34;97835.03;;;21.87;59.32
61035;BME280;46916;40.564;-7.958;2023-09-30T02:53:35;97848.75;;;21.84;59.37
61035;BME280;46916;40.564;-7.958;2023-09-30T02:55:35;97837.25;;;21.84;59.38
61035;BME280;46916;40.564;-7.958;2023-09-30T02:57:37;97848.13;;;21.82;59.58
61035;BME280;46916;40.564;-7.958;2023-09-30T02:59:38;97845.44;;;21.82;59.34
61035;BME280;46916;40.564;-7.958;2023-09-30T03:01:39;97836.38;;;21.76;59.87
61035;BME280;46916;40.564;-7.958;2023-09-30T03:03:41;97832.25;;;21.74;59.65
61035;BME280;46916;40.564;-7.958;2023-09-30T03:05:44;97839.44;;;21.73;60.00
61035;BME280;46916;40.564;-7.958;2023-09-30T03:07:47;97842.47;;;21.70;59.64
61035;BME280;46916;40.564;-7.958;2023-09-30T03:09:48;97841.72;;;21.76;59.53
61035;BME280;46916;40.564;-7.958;2023-09-30T03:11:48;97823.44;;;21.73;59.53
61035;BME280;46916;40.564;-7.958;2023-09-30T03:13:50;97832.91;;;21.76;59.47
61035;BME280;46916;40.564;-7.958;2023-09-30T03:15:51;97833.28;;;21.73;60.05
61035;BME280;46916;40.564;-7.958;2023-09-30T03:17:52;97827.38;;;21.77;59.59
61035;BME280;46916;40.564;-7.958;2023-09-30T03:19:53;97834.28;;;21.72;59.70
61035;BME280;46916;40.564;-7.958;2023-09-30T03:21:54;97835.72;;;21.74;59.91
61035;BME280;46916;40.564;-7.958;2023-09-30T03:23:54;97837.59;;;21.74;60.04
61035;BME280;46916;40.564;-7.958;2023-09-30T03:25:57;97840.63;;;21.71;60.17
61035;BME280;46916;40.564;-7.958;2023-09-30T03:27:57;97839.19;;;21.68;60.10
61035;BME280;46916;40.564;-7.958;2023-09-30T03:29:58;97840.38;;;21.66;60.37
61035;BME280;46916;40.564;-7.958;2023-09-30T03:31:59;97836.63;;;21.60;60.19
61035;BME280;46916;40.564;-7.958;2023-09-30T03:34:00;97836.63;;;21.60;60.29
61035;BME280;46916;40.564;-7.958;2023-09-30T03:36:00;97840.13;;;21.61;60.59
61035;BME280;46916;40.564;-7.958;2023-09-30T03:38:01;97836.81;;;21.59;60.46
61035;BME280;46916;40.564;-7.958;2023-09-30T03:40:03;97840.94;;;21.61;60.60
61035;BME280;46916;40.564;-7.958;2023-09-30T03:42:12;97836.44;;;21.62;60.51
61035;BME280;46916;40.564;-7.958;2023-09-30T03:44:13;97835.81;;;21.60;60.58
61035;BME280;46916;40.564;-7.958;2023-09-30T03:46:14;97835.53;;;21.55;60.55
61035;BME280;46916;40.564;-7.958;2023-09-30T03:48:16;97830.84;;;21.57;60.64
61035;BME280;46916;40.564;-7.958;2023-09-30T03:50:18;97838.03;;;21.56;60.88
61035;BME280;46916;40.564;-7.958;2023-09-30T03:52:19;97840.94;;;21.61;60.57
61035;BME280;46916;40.564;-7.958;2023-09-30T03:54:23;97832.88;;;21.55;60.88
61035;BME280;46916;40.564;-7.958;2023-09-30T03:56:23;97839.59;;;21.50;60.69
61035;BME280;46916;40.564;-7.958;2023-09-30T03:58:24;97845.31;;;21.47;60.94
61035;BME280;46916;40.564;-7.958;2023-09-30T04:00:25;97835.84;;;21.45;61.33
61035;BME280;46916;40.564;-7.958;2023-09-30T04:02:26;97831.72;;;21.42;61.16
61035;BME280;46916;40.564;-7.958;2023-09-30T04:04:26;97830.84;;;21.35;61.75
61035;BME280;46916;40.564;-7.958;2023-09-30T04:06:27;97832.38;;;21.30;61.53
61035;BME280;46916;40.564;-7.958;2023-09-30T04:08:29;97835.03;;;21.30;61.90
61035;BME280;46916;40.564;-7.958;2023-09-30T04:10:30;97831.09;;;21.25;61.65
61035;BME280;46916;40.564;-7.958;2023-09-30T04:12:30;97839.34;;;21.31;62.13
61035;BME280;46916;40.564;-7.958;2023-09-30T04:14:33;97835.41;;;21.26;61.86
61035;BME280;46916;40.564;-7.958;2023-09-30T04:16:34;97832.94;;;21.25;62.07
61035;BME280;46916;40.564;-7.958;2023-09-30T04:18:35;97830.47;;;21.23;62.18
61035;BME280;46916;40.564;-7.958;2023-09-30T04:20:36;97838.06;;;21.26;62.09
61035;BME280;46916;40.564;-7.958;2023-09-30T04:22:40;97835.69;;;21.32;61.73
61035;BME280;46916;40.564;-7.958;2023-09-30T04:24:40;97834.88;;;21.31;62.03
61035;BME280;46916;40.564;-7.958;2023-09-30T04:26:41;97840.72;;;21.26;62.10
61035;BME280;46916;40.564;-7.958;2023-09-30T04:28:41;97842.56;;;21.26;62.17
61035;BME280;46916;40.564;-7.958;2023-09-30T04:30:42;97837.25;;;21.26;62.28
61035;BME280;46916;40.564;-7.958;2023-09-30T04:32:43;97837.25;;;21.26;61.94
61035;BME280;46916;40.564;-7.958;2023-09-30T04:34:44;97841.75;;;21.25;62.07
61035;BME280;46916;40.564;-7.958;2023-09-30T04:36:46;97843.22;;;21.28;62.14
61035;BME280;46916;40.564;-7.958;2023-09-30T04:38:46;97842.22;;;21.29;62.34
61035;BME280;46916;40.564;-7.958;2023-09-30T04:40:47;97850.84;;;21.31;62.05
61035;BME280;46916;40.564;-7.958;2023-09-30T04:42:51;97845.16;;;21.34;61.93
61035;BME280;46916;40.564;-7.958;2023-09-30T04:44:54;97848.66;;;21.35;61.77
61035;BME280;46916;40.564;-7.958;2023-09-30T04:47:00;97844.78;;;21.37;61.59
61035;BME280;46916;40.564;-7.958;2023-09-30T04:49:01;97849.75;;;21.40;61.79
61035;BME280;46916;40.564;-7.958;2023-09-30T04:51:08;97841.56;;;21.42;61.49
61035;BME280;46916;40.564;-7.958;2023-09-30T04:53:09;97844.88;;;21.44;61.28
61035;BME280;46916;40.564;-7.958;2023-09-30T04:55:09;97841.00;;;21.46;61.27
61035;BME280;46916;40.564;-7.958;2023-09-30T04:57:12;97838.16;;;21.48;60.75
61035;BME280;46916;40.564;-7.958;2023-09-30T04:59:13;97844.09;;;21.50;60.46
61035;BME280;46916;40.564;-7.958;2023-09-30T05:01:14;97844.56;;;21.54;60.76
61035;BME280;46916;40.564;-7.958;2023-09-30T05:03:15;97835.38;;;21.56;60.93
61035;BME280;46916;40.564;-7.958;2023-09-30T05:05:15;97856.28;;;21.59;60.51
61035;BME280;46916;40.564;-7.958;2023-09-30T05:07:19;97843.41;;;21.63;60.65
61035;BME280;46916;40.564;-7.958;2023-09-30T05:09:21;97850.00;;;21.67;60.80
61035;BME280;46916;40.564;-7.958;2023-09-30T05:11:22;97845.94;;;21.71;60.37
61035;BME280;46916;40.564;-7.958;2023-09-30T05:13:23;97854.59;;;21.73;60.44
61035;BME280;46916;40.564;-7.958;2023-09-30T05:15:26;97853.78;;;21.72;60.38
61035;BME280;46916;40.564;-7.958;2023-09-30T05:17:29;97850.53;;;21.77;60.23
61035;BME280;46916;40.564;-7.958;2023-09-30T05:19:30;97852.19;;;21.78;60.51
61035;BME280;46916;40.564;-7.958;2023-09-30T05:21:32;97853.00;;;21.79;60.16
61035;BME280;46916;40.564;-7.958;2023-09-30T05:23:33;97852.19;;;21.78;60.29
61035;BME280;46916;40.564;-7.958;2023-09-30T05:25:33;97858.34;;;21.79;59.98
61035;BME280;46916;40.564;-7.958;2023-09-30T05:27:34;97859.97;;;21.80;60.04
61035;BME280;46916;40.564;-7.958;2023-09-30T05:29:35;97857.31;;;21.80;60.01
61035;BME280;46916;40.564;-7.958;2023-09-30T05:31:36;97859.97;;;21.80;60.09
61035;BME280;46916;40.564;-7.958;2023-09-30T05:33:37;97865.75;;;21.83;59.68
61035;BME280;46916;40.564;-7.958;2023-09-30T05:35:38;97870.09;;;21.84;59.92
61035;BME280;46916;40.564;-7.958;2023-09-30T05:37:41;97865.38;;;21.86;59.57
61035;BME280;46916;40.564;-7.958;2023-09-30T05:39:42;97865.38;;;21.86;59.63
61035;BME280;46916;40.564;-7.958;2023-09-30T05:41:44;97869.53;;;21.89;59.46
61035;BME280;46916;40.564;-7.958;2023-09-30T05:43:45;97868.69;;;21.88;59.55
61035;BME280;46916;40.564;-7.958;2023-09-30T05:45:46;97865.00;;;21.89;59.09
61035;BME280;46916;40.564;-7.958;2023-09-30T05:47:49;97867.47;;;21.91;59.48
61035;BME280;46916;40.564;-7.958;2023-09-30T05:49:53;97872.63;;;21.92;58.96
61035;BME280;46916;40.564;-7.958;2023-09-30T05:51:53;97870.78;;;21.93;59.07
61035;BME280;46916;40.564;-7.958;2023-09-30T05:53:55;97879.41;;;21.95;58.65
61035;BME280;46916;40.564;-7.958;2023-09-30T05:55:56;97882.91;;;21.95;58.84
61035;BME280;46916;40.564;-7.958;2023-09-30T05:57:57;97869.97;;;21.92;58.59
61035;BME280;46916;40.564;-7.958;2023-09-30T05:59:58;97871.59;;;21.93;58.75
61035;BME280;46916;40.564;-7.958;2023-09-30T06:01:58;97875.47;;;21.91;58.31
61035;BME280;46916;40.564;-7.958;2023-09-30T06:04:00;97874.44;;;21.92;58.69
61035;BME280;46916;40.564;-7.958;2023-09-30T06:06:00;97875.09;;;21.94;58.79
61035;BME280;46916;40.564;-7.958;2023-09-30T06:08:03;97876.94;;;21.93;58.48
61035;BME280;46916;40.564;-7.958;2023-09-30T06:10:05;97878.97;;;21.91;58.82
61035;BME280;46916;40.564;-7.958;2023-09-30T06:12:08;97883.03;;;21.87;58.96
61035;BME280;46916;40.564;-7.958;2023-09-30T06:14:08;97878.63;;;21.80;59.16
61035;BME280;46916;40.564;-7.958;2023-09-30T06:16:09;97885.13;;;21.70;59.23
61035;BME280;46916;40.564;-7.958;2023-09-30T06:18:11;97881.53;;;21.63;59.28
61035;BME280;46916;40.564;-7.958;2023-09-30T06:20:13;97890.13;;;21.59;59.73
61035;BME280;46916;40.564;-7.958;2023-09-30T06:22:18;97887.84;;;21.56;59.63
61035;BME280;46916;40.564;-7.958;2023-09-30T06:24:18;97890.06;;;21.52;59.68
61035;BME280;46916;40.564;-7.958;2023-09-30T06:26:22;97891.91;;;21.51;59.55
61035;BME280;46916;40.564;-7.958;2023-09-30T06:28:25;97893.53;;;21.52;59.10
61035;BME280;46916;40.564;-7.958;2023-09-30T06:30:26;97890.22;;;21.50;59.26
61035;BME280;46916;40.564;-7.958;2023-09-30T06:32:29;97892.88;;;21.50;59.45
61035;BME280;46916;40.564;-7.958;2023-09-30T06:34:30;97891.03;;;21.51;59.19
61035;BME280;46916;40.564;-7.958;2023-09-30T06:36:31;97894.13;;;21.48;59.13
61035;BME280;46916;40.564;-7.958;2023-09-30T06:38:33;97894.13;;;21.48;59.25
61035;BME280;46916;40.564;-7.958;2023-09-30T06:40:33;97897.34;;;21.43;59.28
61035;BME280;46916;40.564;-7.958;2023-09-30T06:42:35;97895.03;;;21.40;59.54
61035;BME280;46916;40.564;-7.958;2023-09-30T06:44:36;97906.06;;;21.37;59.86
61035;BME280;46916;40.564;-7.958;2023-09-30T06:46:37;97905.44;;;21.35;59.97
61035;BME280;46916;40.564;-7.958;2023-09-30T06:48:38;97913.13;;;21.30;60.32
61035;BME280;46916;40.564;-7.958;2023-09-30T06:50:47;97908.59;;;21.31;60.07
61035;BME280;46916;40.564;-7.958;2023-09-30T06:52:48;97909.47;;;21.31;60.07
61035;BME280;46916;40.564;-7.958;2023-09-30T06:54:50;97906.63;;;21.33;60.12
61035;BME280;46916;40.564;-7.958;2023-09-30T06:56:52;97912.13;;;21.31;60.27
61035;BME280;46916;40.564;-7.958;2023-09-30T06:58:53;97912.41;;;21.36;60.04
61035;BME280;46916;40.564;-7.958;2023-09-30T07:00:53;97907.72;;;21.38;60.40
61035;BME280;46916;40.564;-7.958;2023-09-30T07:02:54;97914.16;;;21.44;60.23
61035;BME280;46916;40.564;-7.958;2023-09-30T07:04:54;97915.22;;;21.49;59.73
61035;BME280;46916;40.564;-7.958;2023-09-30T07:06:55;97921.00;;;21.53;60.00
61035;BME280;46916;40.564;-7.958;2023-09-30T07:08:56;97920.44;;;21.58;59.21
61035;BME280;46916;40.564;-7.958;2023-09-30T07:10:56;97919.44;;;21.59;59.29
61035;BME280;46916;40.564;-7.958;2023-09-30T07:12:57;97911.84;;;21.56;59.51
61035;BME280;46916;40.564;-7.958;2023-09-30T07:14:58;97921.84;;;21.54;59.55
61035;BME280;46916;40.564;-7.958;2023-09-30T07:16:59;97920.81;;;21.55;59.64
61035;BME280;46916;40.564;-7.958;2023-09-30T07:19:00;97927.38;;;21.52;59.77
61035;BME280;46916;40.564;-7.958;2023-09-30T07:21:01;97928.81;;;21.55;59.63
61035;BME280;46916;40.564;-7.958;2023-09-30T07:23:02;97921.22;;;21.51;59.45
61035;BME280;46916;40.564;-7.958;2023-09-30T07:25:04;97926.53;;;21.51;59.58
61035;BME280;46916;40.564;-7.958;2023-09-30T07:27:04;97931.03;;;21.51;59.44
61035;BME280;46916;40.564;-7.958;2023-09-30T07:29:07;97926.09;;;21.48;59.65
61035;BME280;46916;40.564;-7.958;2023-09-30T07:31:09;97930.66;;;21.54;59.81
61035;BME280;46916;40.564;-7.958;2023-09-30T07:33:09;97930.53;;;21.62;59.46
61035;BME280;46916;40.564;-7.958;2023-09-30T07:35:11;97925.56;;;21.74;59.26
61035;BME280;46916;40.564;-7.958;2023-09-30T07:37:14;97932.41;;;21.83;58.88
61035;BME280;46916;40.564;-7.958;2023-09-30T07:39:15;97933.84;;;22.00;58.62
61035;BME280;46916;40.564;-7.958;2023-09-30T07:41:15;97934.63;;;22.16;58.03
61035;BME280;46916;40.564;-7.958;2023-09-30T07:43:18;97933.72;;;22.30;57.60
61035;BME280;46916;40.564;-7.958;2023-09-30T07:45:20;97933.22;;;22.41;57.59
61035;BME280;46916;40.564;-7.958;2023-09-30T07:47:21;97944.00;;;22.55;57.20
61035;BME280;46916;40.564;-7.958;2023-09-30T07:49:22;97948.59;;;22.67;56.87
61035;BME280;46916;40.564;-7.958;2023-09-30T07:51:24;97949.13;;;22.84;56.52
61035;BME280;46916;40.564;-7.958;2023-09-30T07:53:25;97946.41;;;22.99;56.18
61035;BME280;46916;40.564;-7.958;2023-09-30T07:55:25;97944.19;;;23.09;55.71
61035;BME280;46916;40.564;-7.958;2023-09-30T07:57:26;97945.91;;;23.23;55.28
61035;BME280;46916;40.564;-7.958;2023-09-30T07:59:27;97941.25;;;23.39;55.00
61035;BME280;46916;40.564;-7.958;2023-09-30T08:01:27;97944.59;;;23.54;54.38
61035;BME280;46916;40.564;-7.958;2023-09-30T08:03:30;97954.38;;;23.68;54.00
61035;BME280;46916;40.564;-7.958;2023-09-30T08:05:31;97950.91;;;23.81;53.84
61035;BME280;46916;40.564;-7.958;2023-09-30T08:07:33;97949.28;;;23.93;53.53
61035;BME280;46916;40.564;-7.958;2023-09-30T08:09:34;97948.28;;;24.08;53.72
61035;BME280;46916;40.564;-7.958;2023-09-30T08:11:35;97956.34;;;24.21;52.98
61035;BME280;46916;40.564;-7.958;2023-09-30T08:13:37;97954.72;;;24.33;53.04
61035;BME280;46916;40.564;-7.958;2023-09-30T08:15:38;97952.88;;;24.47;52.65
61035;BME280;46916;40.564;-7.958;2023-09-30T08:17:39;97951.84;;;24.61;52.56
61035;BME280;46916;40.564;-7.958;2023-09-30T08:19:39;97956.41;;;24.74;52.39
61035;BME280;46916;40.564;-7.958;2023-09-30T08:21:40;97959.69;;;24.83;52.06
61035;BME280;46916;40.564;-7.958;2023-09-30T08:23:41;97964.59;;;24.92;51.36
61035;BME280;46916;40.564;-7.958;2023-09-30T08:25:42;97967.69;;;25.03;50.85
61035;BME280;46916;40.564;-7.958;2023-09-30T08:27:42;97964.59;;;25.12;50.50
61035;BME280;46916;40.564;-7.958;2023-09-30T08:29:43;97965.81;;;25.23;50.39
61035;BME280;46916;40.564;-7.958;2023-09-30T08:31:44;97962.91;;;25.31;50.46
61035;BME280;46916;40.564;-7.958;2023-09-30T08:33:45;97965.38;;;25.39;50.38
61035;BME280;46916;40.564;-7.958;2023-09-30T08:35:46;97959.97;;;25.46;50.30
61035;BME280;46916;40.564;-7.958;2023-09-30T08:37:46;97960.38;;;25.50;49.22
61035;BME280;46916;40.564;-7.958;2023-09-30T08:39:47;97957.03;;;25.54;49.74
61035;BME280;46916;40.564;-7.958;2023-09-30T08:41:48;97956.84;;;25.56;49.30
61035;BME280;46916;40.564;-7.958;2023-09-30T08:43:48;97957.47;;;25.51;50.07
61035;BME280;46916;40.564;-7.958;2023-09-30T08:45:53;97961.59;;;25.47;49.59
61035;BME280;46916;40.564;-7.958;2023-09-30T08:47:54;97968.81;;;25.47;49.67
61035;BME280;46916;40.564;-7.958;2023-09-30T08:49:57;97972.94;;;25.49;50.34
61035;BME280;46916;40.564;-7.958;2023-09-30T08:52:06;97968.41;;;25.56;49.94
61035;BME280;46916;40.564;-7.958;2023-09-30T08:54:09;97960.75;;;25.60;50.05
61035;BME280;46916;40.564;-7.958;2023-09-30T08:56:10;97964.84;;;25.62;50.15
61035;BME280;46916;40.564;-7.958;2023-09-30T08:58:12;97971.25;;;25.68;49.66
61035;BME280;46916;40.564;-7.958;2023-09-30T09:00:13;97975.75;;;25.74;49.61
61035;BME280;46916;40.564;-7.958;2023-09-30T09:02:14;97971.00;;;25.76;48.69
61035;BME280;46916;40.564;-7.958;2023-09-30T09:04:15;97975.13;;;25.79;48.86
61035;BME280;46916;40.564;-7.958;2023-09-30T09:06:16;97973.25;;;25.79;48.99
61035;BME280;46916;40.564;-7.958;2023-09-30T09:08:17;97985.00;;;25.85;48.71
61035;BME280;46916;40.564;-7.958;2023-09-30T09:10:24;97982.09;;;25.86;48.56
61035;BME280;46916;40.564;-7.958;2023-09-30T09:12:24;97974.28;;;25.85;47.77
61035;BME280;46916;40.564;-7.958;2023-09-30T09:14:43;97980.47;;;25.85;48.37
61035;BME280;46916;40.564;-7.958;2023-09-30T09:16:54;97986.00;;;25.90;48.99
61035;BME280;46916;40.564;-7.958;2023-09-30T09:18:55;97983.72;;;25.94;48.88
61035;BME280;46916;40.564;-7.958;2023-09-30T09:21:11;97982.09;;;25.93;48.45
61035;BME280;46916;40.564;-7.958;2023-09-30T09:23:14;97984.31;;;25.96;48.21
61035;BME280;46916;40.564;-7.958;2023-09-30T09:25:15;97983.72;;;25.94;48.59
61035;BME280;46916;40.564;-7.958;2023-09-30T09:27:17;97988.66;;;25.97;48.59
61035;BME280;46916;40.564;-7.958;2023-09-30T09:29:24;97990.09;;;26.00;48.56
61035;BME280;46916;40.564;-7.958;2023-09-30T09:31:32;97990.72;;;26.02;48.22
61035;BME280;46916;40.564;-7.958;2023-09-30T09:33:36;97988.03;;;26.02;48.75
61035;BME280;46916;40.564;-7.958;2023-09-30T09:35:37;97987.59;;;26.05;48.91
61035;BME280;46916;40.564;-7.958;2023-09-30T09:37:38;97991.69;;;26.07;48.53
61035;BME280;46916;40.564;-7.958;2023-09-30T09:39:38;97990.88;;;26.07;49.03
61035;BME280;46916;40.564;-7.958;2023-09-30T09:41:52;97996.41;;;26.12;48.72
61035;BME280;46916;40.564;-7.958;2023-09-30T09:43:52;97983.38;;;26.15;48.53
61035;BME280;46916;40.564;-7.958;2023-09-30T09:45:55;97984.59;;;26.19;48.56
61035;BME280;46916;40.564;-7.958;2023-09-30T09:47:57;97983.34;;;26.22;49.19
61035;BME280;46916;40.564;-7.958;2023-09-30T09:49:59;97983.13;;;26.24;48.74
61035;BME280;46916;40.564;-7.958;2023-09-30T09:52:00;97983.53;;;26.27;47.43
61035;BME280;46916;40.564;-7.958;2023-09-30T09:54:03;97981.66;;;26.28;47.39
61035;BME280;46916;40.564;-7.958;2023-09-30T09:56:08;97975.25;;;26.29;48.32
61035;BME280;46916;40.564;-7.958;2023-09-30T09:58:10;97974.81;;;26.32;47.76
61035;BME280;46916;40.564;-7.958;2023-09-30T10:00:23;97980.16;;;26.38;47.16
61035;BME280;46916;40.564;-7.958;2023-09-30T10:02:25;97971.88;;;26.40;46.59
61035;BME280;46916;40.564;-7.958;2023-09-30T10:04:28;97982.59;;;26.47;46.83
61035;BME280;46916;40.564;-7.958;2023-09-30T10:06:29;97974.94;;;26.43;47.10
61035;BME280;46916;40.564;-7.958;2023-09-30T10:08:42;97973.50;;;26.48;47.28
61035;BME280;46916;40.564;-7.958;2023-09-30T10:10:45;97978.59;;;26.56;47.22
61035;BME280;46916;40.564;-7.958;2023-09-30T10:12:46;97977.13;;;26.60;46.55
61035;BME280;46916;40.564;-7.958;2023-09-30T10:14:47;97969.84;;;26.67;45.80
61035;BME280;46916;40.564;-7.958;2023-09-30T10:16:48;97969.59;;;26.68;46.53
61035;BME280;46916;40.564;-7.958;2023-09-30T10:19:27;97970.16;;;26.77;46.56
61035;BME280;46916;40.564;-7.958;2023-09-30T10:21:30;97971.97;;;26.83;46.36
61035;BME280;46916;40.564;-7.958;2023-09-30T10:23:30;97965.31;;;26.86;45.78
61035;BME280;46916;40.564;-7.958;2023-09-30T10:25:35;97969.44;;;26.88;46.53
61035;BME280;46916;40.564;-7.958;2023-09-30T10:27:38;97962.56;;;26.92;46.13
61035;BME280;46916;40.564;-7.958;2023-09-30T10:29:41;97960.50;;;26.95;45.83
61035;BME280;46916;40.564;-7.958;2023-09-30T10:31:50;97959.84;;;26.99;45.20
61035;BME280;46916;40.564;-7.958;2023-09-30T10:36:01;97952.31;;;27.08;45.42
61035;BME280;46916;40.564;-7.958;2023-09-30T10:40:29;97946.75;;;27.28;43.58
61035;BME280;46916;40.564;-7.958;2023-09-30T10:42:49;97947.31;;;27.30;44.09